sensor_id;sensor_type;location;lat;lon;timestamp;pressure;altitude;pressure_sealevel;temperature;humidity
18813;BME280;9534;51.140;6.296;2023-03-17T00:02:53;99886.63;;;8.39;100.00
18813;BME280;9534;51.140;6.296;2023-03-17T00:06:58;99876.75;;;8.38;100.00
18813;BME280;9534;51.140;6.296;2023-03-17T00:11:02;99878.44;;;8.39;100.00
18813;BME280;9534;51.140;6.296;2023-03-17T00:15:07;99872.38;;;8.37;100.00
18813;BME280;9534;51.140;6.296;2023-03-17T00:19:13;99878.25;;;8.34;100.00
18813;BME280;9534;51.140;6.296;2023-03-17T00:23:19;99884.56;;;8.28;100.00
18813;BME280;9534;51.140;6.296;2023-03-17T00:27:24;99884.50;;;8.41;100.00
18813;BME280;9534;51.140;6.296;2023-03-17T00:31:29;99880.72;;;8.42;100.00
18813;BME280;9534;51.140;6.296;2023-03-17T00:35:33;99866.06;;;8.43;100.00
18813;BME280;9534;51.140;6.296;2023-03-17T00:39:36;99855.16;;;8.43;100.00
18813;BME280;9534;51.140;6.296;2023-03-17T00:43:41;99847.78;;;8.50;100.00
18813;BME280;9534;51.140;6.296;2023-03-17T00:47:46;99842.75;;;8.47;100.00
18813;BME280;9534;51.140;6.296;2023-03-17T00:51:50;99834.59;;;8.47;100.00
18813;BME280;9534;51.140;6.296;2023-03-17T00:55:55;99817.16;;;8.48;100.00
18813;BME280;9534;51.140;6.296;2023-03-17T01:00:00;99816.13;;;8.49;100.00
18813;BME280;9534;51.140;6.296;2023-03-17T01:04:04;99816.50;;;8.59;100.00
18813;BME280;9534;51.140;6.296;2023-03-17T01:08:08;99797.56;;;8.63;100.00
18813;BME280;9534;51.140;6.296;2023-03-17T01:12:11;99785.44;;;8.60;100.00
18813;BME280;9534;51.140;6.296;2023-03-17T01:16:16;99782.88;;;8.64;100.00
18813;BME280;9534;51.140;6.296;2023-03-17T01:20:21;99782.88;;;8.64;100.00
18813;BME280;9534;51.140;6.296;2023-03-17T01:24:24;99772.69;;;8.54;100.00
18813;BME280;9534;51.140;6.296;2023-03-17T01:28:29;99775.78;;;8.57;100.00
18813;BME280;9534;51.140;6.296;2023-03-17T01:32:33;99780.44;;;8.57;100.00
18813;BME280;9534;51.140;6.296;2023-03-17T01:36:36;99785.25;;;8.55;100.00
18813;BME280;9534;51.140;6.296;2023-03-17T01:40:42;99777.06;;;8.55;100.00
18813;BME280;9534;51.140;6.296;2023-03-17T01:44:56;99783.78;;;8.52;100.00
18813;BME280;9534;51.140;6.296;2023-03-17T01:49:12;99789.91;;;8.48;100.00
18813;BME280;9534;51.140;6.296;2023-03-17T01:53:17;99804.84;;;8.32;100.00
18813;BME280;9534;51.140;6.296;2023-03-17T01:57:25;99806.56;;;8.14;100.00
18813;BME280;9534;51.140;6.296;2023-03-17T02:01:34;99801.97;;;8.08;100.00
18813;BME280;9534;51.140;6.296;2023-03-17T02:05:40;99782.28;;;8.12;100.00
18813;BME280;9534;51.140;6.296;2023-03-17T02:09:45;99781.03;;;8.02;100.00
18813;BME280;9534;51.140;6.296;2023-03-17T02:13:48;99777.25;;;8.03;100.00
18813;BME280;9534;51.140;6.296;2023-03-17T02:17:51;99777.91;;;7.98;100.00
18813;BME280;9534;51.140;6.296;2023-03-17T02:21:57;99769.56;;;7.87;100.00
18813;BME280;9534;51.140;6.296;2023-03-17T02:26:00;99776.91;;;7.80;100.00
18813;BME280;9534;51.140;6.296;2023-03-17T02:30:06;99782.41;;;7.67;100.00
18813;BME280;9534;51.140;6.296;2023-03-17T02:34:10;99776.94;;;7.60;100.00
18813;BME280;9534;51.140;6.296;2023-03-17T02:38:14;99769.44;;;7.56;100.00
18813;BME280;9534;51.140;6.296;2023-03-17T02:42:19;99748.50;;;7.50;100.00
18813;BME280;9534;51.140;6.296;2023-03-17T02:46:22;99748.06;;;7.53;100.00
18813;BME280;9534;51.140;6.296;2023-03-17T02:50:27;99758.13;;;7.59;100.00
18813;BME280;9534;51.140;6.296;2023-03-17T02:54:32;99756.88;;;7.42;100.00
18813;BME280;9534;51.140;6.296;2023-03-17T02:58:36;99775.72;;;7.37;100.00
18813;BME280;9534;51.140;6.296;2023-03-17T03:02:39;99776.34;;;7.39;100.00
18813;BME280;9534;51.140;6.296;2023-03-17T03:06:43;99769.25;;;7.32;100.00
18813;BME280;9534;51.140;6.296;2023-03-17T03:10:48;99768.63;;;7.36;100.00
18813;BME280;9534;51.140;6.296;2023-03-17T03:14:51;99745.16;;;7.48;100.00
18813;BME280;9534;51.140;6.296;2023-03-17T03:18:54;99742.84;;;7.51;100.00
18813;BME280;9534;51.140;6.296;2023-03-17T03:22:57;99733.00;;;7.57;100.00
18813;BME280;9534;51.140;6.296;2023-03-17T03:27:02;99735.50;;;7.58;100.00
18813;BME280;9534;51.140;6.296;2023-03-17T03:31:05;99743.25;;;7.55;100.00
18813;BME280;9534;51.140;6.296;2023-03-17T03:35:08;99728.19;;;7.59;100.00
18813;BME280;9534;51.140;6.296;2023-03-17T03:39:12;99748.94;;;7.47;100.00
18813;BME280;9534;51.140;6.296;2023-03-17T03:43:16;99757.28;;;7.52;100.00
18813;BME280;9534;51.140;6.296;2023-03-17T03:47:24;99754.38;;;7.47;100.00
18813;BME280;9534;51.140;6.296;2023-03-17T03:51:27;99759.38;;;7.50;100.00
18813;BME280;9534;51.140;6.296;2023-03-17T03:55:31;99763.56;;;7.39;100.00
18813;BME280;9534;51.140;6.296;2023-03-17T03:59:35;99760.66;;;7.34;100.00
18813;BME280;9534;51.140;6.296;2023-03-17T04:03:38;99764.41;;;7.33;100.00
18813;BME280;9534;51.140;6.296;2023-03-17T04:07:42;99767.38;;;7.32;100.00
18813;BME280;9534;51.140;6.296;2023-03-17T04:11:45;99769.03;;;7.39;100.00
18813;BME280;9534;51.140;6.296;2023-03-17T04:15:49;99769.84;;;7.46;100.00
18813;BME280;9534;51.140;6.296;2023-03-17T04:19:52;99758.13;;;7.52;100.00
18813;BME280;9534;51.140;6.296;2023-03-17T04:23:55;99758.53;;;7.62;100.00
18813;BME280;9534;51.140;6.296;2023-03-17T04:27:58;99755.19;;;7.67;100.00
18813;BME280;9534;51.140;6.296;2023-03-17T04:32:03;99752.25;;;7.62;100.00
18813;BME280;9534;51.140;6.296;2023-03-17T04:36:08;99743.00;;;7.69;100.00
18813;BME280;9534;51.140;6.296;2023-03-17T04:40:16;99748.69;;;7.61;100.00
18813;BME280;9534;51.140;6.296;2023-03-17T04:44:20;99747.03;;;7.54;100.00
18813;BME280;9534;51.140;6.296;2023-03-17T04:48:24;99753.09;;;7.56;100.00
18813;BME280;9534;51.140;6.296;2023-03-17T04:52:27;99758.94;;;7.59;100.00
18813;BME280;9534;51.140;6.296;2023-03-17T04:56:31;99769.44;;;7.56;100.00
18813;BME280;9534;51.140;6.296;2023-03-17T05:00:34;99770.50;;;7.42;100.00
18813;BME280;9534;51.140;6.296;2023-03-17T05:04:41;99775.94;;;7.42;100.00
18813;BME280;9534;51.140;6.296;2023-03-17T05:08:45;99767.16;;;7.40;100.00
18813;BME280;9534;51.140;6.296;2023-03-17T05:12:49;99764.84;;;7.37;100.00
18813;BME280;9534;51.140;6.296;2023-03-17T05:16:52;99765.03;;;7.35;100.00
18813;BME280;9534;51.140;6.296;2023-03-17T05:20:57;99770.28;;;7.37;100.00
18813;BME280;9534;51.140;6.296;2023-03-17T05:25:00;99770.28;;;7.37;100.00
18813;BME280;9534;51.140;6.296;2023-03-17T05:29:03;99755.84;;;7.36;100.00
18813;BME280;9534;51.140;6.296;2023-03-17T05:33:06;99742.88;;;7.32;100.00
18813;BME280;9534;51.140;6.296;2023-03-17T05:37:11;99755.19;;;7.34;100.00
18813;BME280;9534;51.140;6.296;2023-03-17T05:41:14;99757.31;;;7.39;100.00
18813;BME280;9534;51.140;6.296;2023-03-17T05:45:18;99750.81;;;7.40;100.00
18813;BME280;9534;51.140;6.296;2023-03-17T05:49:21;99749.34;;;7.44;100.00
18813;BME280;9534;51.140;6.296;2023-03-17T05:53:26;99750.63;;;7.35;100.00
18813;BME280;9534;51.140;6.296;2023-03-17T05:57:30;99748.91;;;7.40;100.00
18813;BME280;9534;51.140;6.296;2023-03-17T06:01:33;99752.50;;;7.41;100.00
18813;BME280;9534;51.140;6.296;2023-03-17T06:05:37;99743.91;;;7.44;100.00
18813;BME280;9534;51.140;6.296;2023-03-17T06:09:41;99734.28;;;7.48;100.00
18813;BME280;9534;51.140;6.296;2023-03-17T06:13:44;99733.84;;;7.51;100.00
18813;BME280;9534;51.140;6.296;2023-03-17T06:17:47;99737.81;;;7.55;100.00
18813;BME280;9534;51.140;6.296;2023-03-17T06:21:50;99735.91;;;7.62;100.00
18813;BME280;9534;51.140;6.296;2023-03-17T06:25:55;99748.47;;;7.63;100.00
18813;BME280;9534;51.140;6.296;2023-03-17T06:29:58;99742.16;;;7.75;100.00
18813;BME280;9534;51.140;6.296;2023-03-17T06:34:01;99751.16;;;7.82;100.00
18813;BME280;9534;51.140;6.296;2023-03-17T06:38:05;99741.25;;;7.94;100.00
18813;BME280;9534;51.140;6.296;2023-03-17T06:42:09;99749.19;;;8.02;100.00
18813;BME280;9534;51.140;6.296;2023-03-17T06:46:13;99762.97;;;8.14;100.00
18813;BME280;9534;51.140;6.296;2023-03-17T06:50:16;99765.47;;;8.22;100.00
18813;BME280;9534;51.140;6.296;2023-03-17T06:54:19;99757.06;;;8.30;100.00
18813;BME280;9534;51.140;6.296;2023-03-17T06:58:26;99758.69;;;8.44;100.00
18813;BME280;9534;51.140;6.296;2023-03-17T07:02:30;99769.50;;;8.57;100.00
18813;BME280;9534;51.140;6.296;2023-03-17T07:06:33;99766.06;;;8.67;100.00
18813;BME280;9534;51.140;6.296;2023-03-17T07:10:36;99768.09;;;8.78;100.00
18813;BME280;9534;51.140;6.296;2023-03-17T07:14:40;99778.31;;;8.89;100.00
18813;BME280;9534;51.140;6.296;2023-03-17T07:18:43;99764.13;;;9.05;100.00
18813;BME280;9534;51.140;6.296;2023-03-17T07:22:46;99760.53;;;9.11;100.00
18813;BME280;9534;51.140;6.296;2023-03-17T07:26:50;99759.81;;;9.22;100.00
18813;BME280;9534;51.140;6.296;2023-03-17T07:30:54;99759.84;;;9.40;100.00
18813;BME280;9534;51.140;6.296;2023-03-17T07:34:58;99758.28;;;9.51;100.00
18813;BME280;9534;51.140;6.296;2023-03-17T07:39:02;99756.97;;;9.53;100.00
18813;BME280;9534;51.140;6.296;2023-03-17T07:43:05;99751.84;;;9.63;100.00
18813;BME280;9534;51.140;6.296;2023-03-17T07:47:10;99747.59;;;9.67;100.00
18813;BME280;9534;51.140;6.296;2023-03-17T07:51:16;99743.50;;;9.76;100.00
18813;BME280;9534;51.140;6.296;2023-03-17T07:55:19;99747.09;;;9.77;100.00
18813;BME280;9534;51.140;6.296;2023-03-17T07:59:23;99759.25;;;9.81;100.00
18813;BME280;9534;51.140;6.296;2023-03-17T08:03:27;99763.16;;;10.02;100.00
18813;BME280;9534;51.140;6.296;2023-03-17T08:07:31;99762.81;;;10.35;100.00
18813;BME280;9534;51.140;6.296;2023-03-17T08:11:34;99759.88;;;10.66;100.00
18813;BME280;9534;51.140;6.296;2023-03-17T08:15:38;99757.31;;;10.53;100.00
18813;BME280;9534;51.140;6.296;2023-03-17T08:19:43;99775.94;;;11.03;100.00
18813;BME280;9534;51.140;6.296;2023-03-17T08:23:46;99787.75;;;11.15;100.00
18813;BME280;9534;51.140;6.296;2023-03-17T08:27:49;99776.34;;;11.18;100.00
18813;BME280;9534;51.140;6.296;2023-03-17T08:31:52;99768.28;;;11.46;100.00
18813;BME280;9534;51.140;6.296;2023-03-17T08:35:57;99774.97;;;11.73;100.00
18813;BME280;9534;51.140;6.296;2023-03-17T08:40:00;99761.63;;;11.65;100.00
18813;BME280;9534;51.140;6.296;2023-03-17T08:44:04;99765.09;;;11.83;100.00
18813;BME280;9534;51.140;6.296;2023-03-17T08:48:09;99754.38;;;12.44;100.00
18813;BME280;9534;51.140;6.296;2023-03-17T08:52:13;99742.75;;;12.81;100.00
18813;BME280;9534;51.140;6.296;2023-03-17T08:56:17;99747.94;;;13.22;100.00
18813;BME280;9534;51.140;6.296;2023-03-17T09:00:20;99754.78;;;13.53;100.00
18813;BME280;9534;51.140;6.296;2023-03-17T09:04:24;99758.84;;;14.42;100.00
18813;BME280;9534;51.140;6.296;2023-03-17T09:08:30;99750.91;;;14.24;100.00
18813;BME280;9534;51.140;6.296;2023-03-17T09:12:33;99754.09;;;14.59;100.00
18813;BME280;9534;51.140;6.296;2023-03-17T09:16:36;99753.69;;;14.98;100.00
18813;BME280;9534;51.140;6.296;2023-03-17T09:20:39;99769.13;;;15.21;100.00
18813;BME280;9534;51.140;6.296;2023-03-17T09:24:44;99774.38;;;15.54;100.00
18813;BME280;9534;51.140;6.296;2023-03-17T09:28:47;99775.38;;;16.10;100.00
18813;BME280;9534;51.140;6.296;2023-03-17T09:32:50;99767.06;;;16.52;100.00
18813;BME280;9534;51.140;6.296;2023-03-17T09:36:54;99765.53;;;15.88;100.00
18813;BME280;9534;51.140;6.296;2023-03-17T09:41:10;99759.63;;;15.70;100.00
18813;BME280;9534;51.140;6.296;2023-03-17T09:45:31;99772.91;;;15.73;100.00
18813;BME280;9534;51.140;6.296;2023-03-17T09:49:39;99774.19;;;15.34;100.00
18813;BME280;9534;51.140;6.296;2023-03-17T09:53:49;99760.13;;;15.62;100.00
18813;BME280;9534;51.140;6.296;2023-03-17T09:57:55;99767.75;;;15.23;100.00
18813;BME280;9534;51.140;6.296;2023-03-17T10:01:59;99782.63;;;15.22;100.00
18813;BME280;9534;51.140;6.296;2023-03-17T10:06:32;99778.81;;;15.55;100.00
18813;BME280;9534;51.140;6.296;2023-03-17T10:10:41;99785.22;;;15.97;100.00
18813;BME280;9534;51.140;6.296;2023-03-17T10:14:55;99779.53;;;16.59;100.00
18813;BME280;9534;51.140;6.296;2023-03-17T10:19:03;99789.19;;;17.43;100.00
18813;BME280;9534;51.140;6.296;2023-03-17T10:23:14;99775.53;;;16.40;100.00
18813;BME280;9534;51.140;6.296;2023-03-17T10:27:19;99772.06;;;16.55;100.00
18813;BME280;9534;51.140;6.296;2023-03-17T10:31:28;99763.00;;;15.77;100.00
18813;BME280;9534;51.140;6.296;2023-03-17T10:35:35;99753.34;;;16.25;100.00
18813;BME280;9534;51.140;6.296;2023-03-17T10:39:44;99755.88;;;15.86;100.00
18813;BME280;9534;51.140;6.296;2023-03-17T10:43:48;99743.66;;;16.18;100.00
18813;BME280;9534;51.140;6.296;2023-03-17T10:47:55;99754.66;;;16.59;100.00
18813;BME280;9534;51.140;6.296;2023-03-17T10:51:59;99762.56;;;17.17;100.00
18813;BME280;9534;51.140;6.296;2023-03-17T10:56:07;99752.94;;;17.74;100.00
18813;BME280;9534;51.140;6.296;2023-03-17T11:00:15;99747.03;;;18.36;100.00
18813;BME280;9534;51.140;6.296;2023-03-17T11:04:34;99743.25;;;17.92;100.00
18813;BME280;9534;51.140;6.296;2023-03-17T11:08:39;99742.69;;;17.90;100.00
18813;BME280;9534;51.140;6.296;2023-03-17T11:12:43;99737.44;;;17.73;100.00
18813;BME280;9534;51.140;6.296;2023-03-17T11:16:52;99732.75;;;17.84;100.00
18813;BME280;9534;51.140;6.296;2023-03-17T11:20:59;99729.31;;;18.22;100.00
18813;BME280;9534;51.140;6.296;2023-03-17T11:25:08;99718.75;;;18.44;100.00
18813;BME280;9534;51.140;6.296;2023-03-17T11:29:24;99718.22;;;18.42;100.00
18813;BME280;9534;51.140;6.296;2023-03-17T11:33:35;99704.97;;;18.09;100.00
18813;BME280;9534;51.140;6.296;2023-03-17T11:37:58;99717.22;;;17.93;100.00
18813;BME280;9534;51.140;6.296;2023-03-17T11:42:07;99708.38;;;17.81;100.00
18813;BME280;9534;51.140;6.296;2023-03-17T11:46:15;99708.75;;;18.53;100.00
18813;BME280;9534;51.140;6.296;2023-03-17T11:50:27;99712.34;;;19.01;100.00
18813;BME280;9534;51.140;6.296;2023-03-17T11:54:44;99707.66;;;19.40;100.00
18813;BME280;9534;51.140;6.296;2023-03-17T11:58:51;99705.41;;;19.99;100.00
18813;BME280;9534;51.140;6.296;2023-03-17T12:03:00;99707.50;;;19.22;100.00
18813;BME280;9534;51.140;6.296;2023-03-17T12:07:16;99702.19;;;19.30;100.00
18813;BME280;9534;51.140;6.296;2023-03-17T12:11:25;99694.97;;;18.86;100.00
18813;BME280;9534;51.140;6.296;2023-03-17T12:15:31;99690.50;;;19.33;100.00
18813;BME280;9534;51.140;6.296;2023-03-17T12:19:41;99690.78;;;18.88;100.00
18813;BME280;9534;51.140;6.296;2023-03-17T12:23:47;99689.91;;;18.98;100.00
18813;BME280;9534;51.140;6.296;2023-03-17T12:27:58;99687.09;;;19.03;100.00
18813;BME280;9534;51.140;6.296;2023-03-17T12:32:05;99687.41;;;18.96;100.00
18813;BME280;9534;51.140;6.296;2023-03-17T12:36:12;99671.81;;;19.05;100.00
18813;BME280;9534;51.140;6.296;2023-03-17T12:40:19;99669.72;;;18.39;100.00
18813;BME280;9534;51.140;6.296;2023-03-17T12:44:39;99673.59;;;18.86;100.00
18813;BME280;9534;51.140;6.296;2023-03-17T12:53:27;99648.75;;;18.76;100.00
18813;BME280;9534;51.140;6.296;2023-03-17T12:57:39;99651.03;;;18.64;100.00
18813;BME280;9534;51.140;6.296;2023-03-17T13:01:46;99656.72;;;18.83;100.00
18813;BME280;9534;51.140;6.296;2023-03-17T13:05:58;99651.72;;;18.42;100.00
18813;BME280;9534;51.140;6.296;2023-03-17T13:10:37;99643.50;;;18.70;100.00
18813;BME280;9534;51.140;6.296;2023-03-17T13:14:42;99639.97;;;18.64;100.00
18813;BME280;9534;51.140;6.296;2023-03-17T13:18:48;99658.94;;;18.33;100.00
18813;BME280;9534;51.140;6.296;2023-03-17T13:23:02;99651.16;;;18.45;100.00
18813;BME280;9534;51.140;6.296;2023-03-17T13:27:09;99638.47;;;18.19;100.00
18813;BME280;9534;51.140;6.296;2023-03-17T13:31:28;99643.22;;;18.13;100.00
18813;BME280;9534;51.140;6.296;2023-03-17T13:35:41;99649.53;;;18.24;100.00
18813;BME280;9534;51.140;6.296;2023-03-17T13:40:13;99647.22;;;18.56;100.00
18813;BME280;9534;51.140;6.296;2023-03-17T13:44:28;99646.94;;;17.89;100.00
18813;BME280;9534;51.140;6.296;2023-03-17T13:48:35;99647.06;;;18.22;100.00
18813;BME280;9534;51.140;6.296;2023-03-17T13:52:46;99641.66;;;18.56;100.00
18813;BME280;9534;51.140;6.296;2023-03-17T13:56:50;99624.22;;;18.93;100.00
18813;BME280;9534;51.140;6.296;2023-03-17T14:00:58;99618.84;;;19.40;100.00
18813;BME280;9534;51.140;6.296;2023-03-17T14:05:03;99606.16;;;19.34;100.00
18813;BME280;9534;51.140;6.296;2023-03-17T14:09:19;99612.91;;;19.18;100.00
18813;BME280;9534;51.140;6.296;2023-03-17T14:13:30;99604.22;;;19.30;100.00
18813;BME280;9534;51.140;6.296;2023-03-17T14:17:41;99597.44;;;19.12;100.00
18813;BME280;9534;51.140;6.296;2023-03-17T14:21:45;99587.16;;;19.46;100.00
18813;BME280;9534;51.140;6.296;2023-03-17T14:25:50;99598.94;;;20.50;100.00
18813;BME280;9534;51.140;6.296;2023-03-17T14:30:04;99605.34;;;21.38;100.00
18813;BME280;9534;51.140;6.296;2023-03-17T14:34:11;99601.47;;;21.20;100.00
18813;BME280;9534;51.140;6.296;2023-03-17T14:38:17;99603.91;;;20.90;100.00
18813;BME280;9534;51.140;6.296;2023-03-17T14:42:26;99597.56;;;20.29;100.00
18813;BME280;9534;51.140;6.296;2023-03-17T14:46:31;99598.06;;;20.13;100.00
18813;BME280;9534;51.140;6.296;2023-03-17T14:50:34;99585.44;;;20.44;100.00
18813;BME280;9534;51.140;6.296;2023-03-17T14:54:37;99584.88;;;20.79;100.00
18813;BME280;9534;51.140;6.296;2023-03-17T14:58:44;99598.81;;;19.95;100.00
18813;BME280;9534;51.140;6.296;2023-03-17T15:02:53;99589.78;;;19.33;100.00
18813;BME280;9534;51.140;6.296;2023-03-17T15:06:57;99584.16;;;19.09;100.00
18813;BME280;9534;51.140;6.296;2023-03-17T15:11:02;99580.00;;;18.78;100.00
18813;BME280;9534;51.140;6.296;2023-03-17T15:15:22;99582.97;;;18.87;100.00
18813;BME280;9534;51.140;6.296;2023-03-17T15:19:28;99577.84;;;18.70;100.00
18813;BME280;9534;51.140;6.296;2023-03-17T15:23:38;99582.28;;;18.66;100.00
18813;BME280;9534;51.140;6.296;2023-03-17T15:27:42;99579.16;;;18.78;100.00
18813;BME280;9534;51.140;6.296;2023-03-17T15:31:47;99581.44;;;18.66;100.00
18813;BME280;9534;51.140;6.296;2023-03-17T15:35:50;99582.28;;;18.66;100.00
18813;BME280;9534;51.140;6.296;2023-03-17T15:39:54;99569.16;;;18.39;100.00
18813;BME280;9534;51.140;6.296;2023-03-17T15:43:57;99568.56;;;18.47;100.00
18813;BME280;9534;51.140;6.296;2023-03-17T15:48:01;99562.56;;;18.25;100.00
18813;BME280;9534;51.140;6.296;2023-03-17T15:52:12;99565.66;;;18.18;100.00
18813;BME280;9534;51.140;6.296;2023-03-17T15:56:18;99572.66;;;18.01;100.00
18813;BME280;9534;51.140;6.296;2023-03-17T16:00:23;99567.19;;;17.91;100.00
18813;BME280;9534;51.140;6.296;2023-03-17T16:04:28;99570.53;;;17.83;100.00
18813;BME280;9534;51.140;6.296;2023-03-17T16:08:31;99569.50;;;17.64;100.00
18813;BME280;9534;51.140;6.296;2023-03-17T16:12:35;99572.03;;;17.50;100.00
18813;BME280;9534;51.140;6.296;2023-03-17T16:16:40;99583.13;;;17.45;100.00
18813;BME280;9534;51.140;6.296;2023-03-17T16:20:49;99582.00;;;17.32;100.00
18813;BME280;9534;51.140;6.296;2023-03-17T16:24:52;99580.63;;;17.19;100.00
18813;BME280;9534;51.140;6.296;2023-03-17T16:28:56;99582.31;;;16.95;100.00
18813;BME280;9534;51.140;6.296;2023-03-17T16:33:02;99602.47;;;16.76;100.00
18813;BME280;9534;51.140;6.296;2023-03-17T16:37:10;99600.81;;;16.65;100.00
18813;BME280;9534;51.140;6.296;2023-03-17T16:41:17;99625.91;;;16.53;100.00
18813;BME280;9534;51.140;6.296;2023-03-17T16:45:25;99618.94;;;16.36;100.00
18813;BME280;9534;51.140;6.296;2023-03-17T16:49:28;99633.00;;;16.24;100.00
18813;BME280;9534;51.140;6.296;2023-03-17T16:53:33;99620.28;;;16.13;100.00
18813;BME280;9534;51.140;6.296;2023-03-17T16:57:37;99630.69;;;16.02;100.00
18813;BME280;9534;51.140;6.296;2023-03-17T17:01:41;99655.50;;;15.92;100.00
18813;BME280;9534;51.140;6.296;2023-03-17T17:05:44;99662.63;;;15.88;100.00
18813;BME280;9534;51.140;6.296;2023-03-17T17:09:48;99666.44;;;15.77;100.00
18813;BME280;9534;51.140;6.296;2023-03-17T17:13:51;99654.28;;;15.73;100.00
18813;BME280;9534;51.140;6.296;2023-03-17T17:17:56;99649.25;;;15.65;100.00
18813;BME280;9534;51.140;6.296;2023-03-17T17:22:01;99637.63;;;15.58;100.00
18813;BME280;9534;51.140;6.296;2023-03-17T17:26:05;99648.91;;;15.51;100.00
18813;BME280;9534;51.140;6.296;2023-03-17T17:30:11;99661.28;;;15.49;100.00
18813;BME280;9534;51.140;6.296;2023-03-17T17:34:15;99660.69;;;15.42;100.00
18813;BME280;9534;51.140;6.296;2023-03-17T17:38:20;99654.06;;;15.38;100.00
18813;BME280;9534;51.140;6.296;2023-03-17T17:42:25;99657.84;;;15.32;100.00
18813;BME280;9534;51.140;6.296;2023-03-17T17:46:28;99678.41;;;15.19;100.00
18813;BME280;9534;51.140;6.296;2023-03-17T17:50:32;99683.00;;;15.09;100.00
18813;BME280;9534;51.140;6.296;2023-03-17T17:54:36;99700.53;;;14.98;100.00
18813;BME280;9534;51.140;6.296;2023-03-17T17:58:41;99710.38;;;14.89;100.00
18813;BME280;9534;51.140;6.296;2023-03-17T18:02:44;99711.28;;;14.73;100.00
18813;BME280;9534;51.140;6.296;2023-03-17T18:06:47;99724.28;;;14.51;100.00
18813;BME280;9534;51.140;6.296;2023-03-17T18:10:51;99716.88;;;14.30;100.00
18813;BME280;9534;51.140;6.296;2023-03-17T18:14:57;99718.88;;;14.18;100.00
18813;BME280;9534;51.140;6.296;2023-03-17T18:19:01;99707.72;;;14.08;100.00
18813;BME280;9534;51.140;6.296;2023-03-17T18:23:04;99704.47;;;14.11;100.00
18813;BME280;9534;51.140;6.296;2023-03-17T18:27:07;99705.56;;;14.10;100.00
18813;BME280;9534;51.140;6.296;2023-03-17T18:31:15;99706.59;;;14.04;100.00
18813;BME280;9534;51.140;6.296;2023-03-17T18:35:23;99714.09;;;13.92;100.00
18813;BME280;9534;51.140;6.296;2023-03-17T18:39:28;99706.06;;;13.86;100.00
18813;BME280;9534;51.140;6.296;2023-03-17T18:43:31;99713.31;;;13.75;100.00
18813;BME280;9534;51.140;6.296;2023-03-17T18:47:36;99716.19;;;13.64;100.00
18813;BME280;9534;51.140;6.296;2023-03-17T18:51:39;99708.84;;;13.53;100.00
18813;BME280;9534;51.140;6.296;2023-03-17T18:55:43;99710.13;;;13.46;100.00
18813;BME280;9534;51.140;6.296;2023-03-17T18:59:46;99706.72;;;13.39;100.00
18813;BME280;9534;51.140;6.296;2023-03-17T19:03:51;99720.09;;;13.35;100.00
18813;BME280;9534;51.140;6.296;2023-03-17T19:07:54;99718.88;;;13.26;100.00
18813;BME280;9534;51.140;6.296;2023-03-17T19:12:03;99713.03;;;13.23;100.00
18813;BME280;9534;51.140;6.296;2023-03-17T19:16:08;99717.38;;;13.19;100.00
18813;BME280;9534;51.140;6.296;2023-03-17T19:20:13;99701.22;;;13.06;100.00
18813;BME280;9534;51.140;6.296;2023-03-17T19:24:16;99710.03;;;13.08;100.00
18813;BME280;9534;51.140;6.296;2023-03-17T19:28:20;99703.94;;;13.06;100.00
18813;BME280;9534;51.140;6.296;2023-03-17T19:32:23;99698.25;;;12.96;100.00
18813;BME280;9534;51.140;6.296;2023-03-17T19:36:33;99696.34;;;12.96;100.00
18813;BME280;9534;51.140;6.296;2023-03-17T19:40:37;99709.81;;;12.98;100.00
18813;BME280;9534;51.140;6.296;2023-03-17T19:44:41;99718.56;;;12.95;100.00
18813;BME280;9534;51.140;6.296;2023-03-17T19:48:44;99722.00;;;13.02;100.00
18813;BME280;9534;51.140;6.296;2023-03-17T19:52:48;99720.53;;;13.11;100.00
18813;BME280;9534;51.140;6.296;2023-03-17T19:56:53;99726.69;;;13.18;100.00
18813;BME280;9534;51.140;6.296;2023-03-17T20:00:57;99716.72;;;13.45;100.00
18813;BME280;9534;51.140;6.296;2023-03-17T20:05:00;99720.84;;;13.47;100.00
18813;BME280;9534;51.140;6.296;2023-03-17T20:09:04;99722.94;;;13.57;100.00
18813;BME280;9534;51.140;6.296;2023-03-17T20:13:09;99727.38;;;13.58;100.00
18813;BME280;9534;51.140;6.296;2023-03-17T20:17:13;99731.50;;;13.60;100.00
18813;BME280;9534;51.140;6.296;2023-03-17T20:21:18;99738.50;;;13.67;100.00
18813;BME280;9534;51.140;6.296;2023-03-17T20:25:22;99740.31;;;13.78;100.00
18813;BME280;9534;51.140;6.296;2023-03-17T20:29:25;99732.28;;;13.93;100.00
18813;BME280;9534;51.140;6.296;2023-03-17T20:33:29;99745.03;;;13.99;100.00
18813;BME280;9534;51.140;6.296;2023-03-17T20:37:32;99744.78;;;14.01;100.00
18813;BME280;9534;51.140;6.296;2023-03-17T20:41:37;99741.84;;;14.07;100.00
18813;BME280;9534;51.140;6.296;2023-03-17T20:45:40;99751.91;;;14.18;100.00
18813;BME280;9534;51.140;6.296;2023-03-17T20:49:43;99744.22;;;14.20;100.00
18813;BME280;9534;51.140;6.296;2023-03-17T20:53:48;99757.47;;;14.23;100.00
18813;BME280;9534;51.140;6.296;2023-03-17T20:57:53;99747.53;;;14.22;100.00
18813;BME280;9534;51.140;6.296;2023-03-17T21:02:00;99752.81;;;14.24;100.00
18813;BME280;9534;51.140;6.296;2023-03-17T21:06:05;99743.94;;;14.22;100.00
18813;BME280;9534;51.140;6.296;2023-03-17T21:10:10;99753.56;;;14.19;100.00
18813;BME280;9534;51.140;6.296;2023-03-17T21:14:15;99746.22;;;14.25;100.00
18813;BME280;9534;51.140;6.296;2023-03-17T21:18:18;99746.13;;;14.20;100.00
18813;BME280;9534;51.140;6.296;2023-03-17T21:22:21;99736.47;;;14.17;100.00
18813;BME280;9534;51.140;6.296;2023-03-17T21:26:26;99741.91;;;14.12;100.00
18813;BME280;9534;51.140;6.296;2023-03-17T21:30:31;99742.41;;;14.09;100.00
18813;BME280;9534;51.140;6.296;2023-03-17T21:34:35;99738.25;;;14.07;100.00
18813;BME280;9534;51.140;6.296;2023-03-17T21:38:38;99730.59;;;14.09;100.00
18813;BME280;9534;51.140;6.296;2023-03-17T21:42:42;99729.59;;;13.98;100.00
18813;BME280;9534;51.140;6.296;2023-03-17T21:46:48;99734.78;;;13.95;100.00
18813;BME280;9534;51.140;6.296;2023-03-17T21:50:51;99733.28;;;13.87;100.00
18813;BME280;9534;51.140;6.296;2023-03-17T21:54:55;99737.31;;;13.80;100.00